sensor_id;sensor_type;location;lat;lon;timestamp;temperature;humidity
20856;DHT22;63058;49.424;8.420;2023-02-01T00:01:59;8.80;99.90
20856;DHT22;63058;49.424;8.420;2023-02-01T00:04:25;8.70;99.90
20856;DHT22;63058;49.424;8.420;2023-02-01T00:06:51;8.70;99.90
20856;DHT22;63058;49.424;8.420;2023-02-01T00:09:17;8.80;99.90
20856;DHT22;63058;49.424;8.420;2023-02-01T00:11:42;8.70;99.90
20856;DHT22;63058;49.424;8.420;2023-02-01T00:14:08;8.70;99.90
20856;DHT22;63058;49.424;8.420;2023-02-01T00:16:34;8.60;99.90
20856;DHT22;63058;49.424;8.420;2023-02-01T00:19:03;8.60;99.90
20856;DHT22;63058;49.424;8.420;2023-02-01T00:21:29;8.70;99.90
20856;DHT22;63058;49.424;8.420;2023-02-01T00:23:55;8.60;99.90
20856;DHT22;63058;49.424;8.420;2023-02-01T00:26:36;8.70;99.90
20856;DHT22;63058;49.424;8.420;2023-02-01T00:29:04;8.70;99.90
20856;DHT22;63058;49.424;8.420;2023-02-01T00:31:29;8.70;99.90
20856;DHT22;63058;49.424;8.420;2023-02-01T00:33:55;8.70;99.90
20856;DHT22;63058;49.424;8.420;2023-02-01T00:36:21;8.70;99.90
20856;DHT22;63058;49.424;8.420;2023-02-01T00:38:47;8.70;99.90
20856;DHT22;63058;49.424;8.420;2023-02-01T00:41:17;8.70;99.90
20856;DHT22;63058;49.424;8.420;2023-02-01T00:43:44;8.70;99.90
20856;DHT22;63058;49.424;8.420;2023-02-01T00:46:11;8.80;99.90
20856;DHT22;63058;49.424;8.420;2023-02-01T00:48:37;8.70;99.90
20856;DHT22;63058;49.424;8.420;2023-02-01T00:51:05;8.70;99.90
20856;DHT22;63058;49.424;8.420;2023-02-01T00:53:32;8.70;99.90
20856;DHT22;63058;49.424;8.420;2023-02-01T00:55:58;8.70;99.90
20856;DHT22;63058;49.424;8.420;2023-02-01T00:58:24;8.70;99.90
20856;DHT22;63058;49.424;8.420;2023-02-01T01:01:11;8.70;99.90
20856;DHT22;63058;49.424;8.420;2023-02-01T01:03:49;8.70;99.90
20856;DHT22;63058;49.424;8.420;2023-02-01T01:06:18;8.80;99.90
20856;DHT22;63058;49.424;8.420;2023-02-01T01:08:44;8.80;99.90
20856;DHT22;63058;49.424;8.420;2023-02-01T01:11:13;8.90;99.90
20856;DHT22;63058;49.424;8.420;2023-02-01T01:13:39;8.80;99.90
20856;DHT22;63058;49.424;8.420;2023-02-01T01:16:06;8.80;99.90
20856;DHT22;63058;49.424;8.420;2023-02-01T01:18:33;8.80;99.90
20856;DHT22;63058;49.424;8.420;2023-02-01T01:21:00;8.80;99.90
20856;DHT22;63058;49.424;8.420;2023-02-01T01:23:26;8.90;99.90
20856;DHT22;63058;49.424;8.420;2023-02-01T01:25:52;8.90;99.90
20856;DHT22;63058;49.424;8.420;2023-02-01T01:28:18;8.90;99.90
20856;DHT22;63058;49.424;8.420;2023-02-01T01:30:43;8.90;99.90
20856;DHT22;63058;49.424;8.420;2023-02-01T01:33:09;8.90;99.90
20856;DHT22;63058;49.424;8.420;2023-02-01T01:35:35;8.90;99.90
20856;DHT22;63058;49.424;8.420;2023-02-01T01:38:01;8.90;99.90
20856;DHT22;63058;49.424;8.420;2023-02-01T01:40:27;8.90;99.90
20856;DHT22;63058;49.424;8.420;2023-02-01T01:42:53;8.90;99.90
20856;DHT22;63058;49.424;8.420;2023-02-01T01:47:53;8.80;99.90
20856;DHT22;63058;49.424;8.420;2023-02-01T01:50:24;8.90;99.90
20856;DHT22;63058;49.424;8.420;2023-02-01T01:52:53;8.80;99.90
20856;DHT22;63058;49.424;8.420;2023-02-01T01:55:22;8.80;99.90
20856;DHT22;63058;49.424;8.420;2023-02-01T01:58:08;8.90;99.90
20856;DHT22;63058;49.424;8.420;2023-02-01T02:00:35;8.80;99.90
20856;DHT22;63058;49.424;8.420;2023-02-01T02:03:32;8.80;99.90
20856;DHT22;63058;49.424;8.420;2023-02-01T02:06:01;8.80;99.90
20856;DHT22;63058;49.424;8.420;2023-02-01T02:08:28;8.80;99.90
20856;DHT22;63058;49.424;8.420;2023-02-01T02:10:54;8.80;99.90
20856;DHT22;63058;49.424;8.420;2023-02-01T02:13:32;8.80;99.90
20856;DHT22;63058;49.424;8.420;2023-02-01T02:16:28;8.80;99.90
20856;DHT22;63058;49.424;8.420;2023-02-01T02:35:53;8.80;99.90
20856;DHT22;63058;49.424;8.420;2023-02-01T02:38:47;8.80;99.90
20856;DHT22;63058;49.424;8.420;2023-02-01T02:41:18;8.80;99.90
20856;DHT22;63058;49.424;8.420;2023-02-01T02:44:10;8.90;99.90
20856;DHT22;63058;49.424;8.420;2023-02-01T02:47:00;8.90;99.90
20856;DHT22;63058;49.424;8.420;2023-02-01T02:52:54;9.00;99.90
20856;DHT22;63058;49.424;8.420;2023-02-01T02:55:42;9.00;99.90
20856;DHT22;63058;49.424;8.420;2023-02-01T02:58:11;9.10;99.90
20856;DHT22;63058;49.424;8.420;2023-02-01T03:00:56;9.10;99.90
20856;DHT22;63058;49.424;8.420;2023-02-01T03:03:41;9.10;99.90
20856;DHT22;63058;49.424;8.420;2023-02-01T03:06:26;9.10;99.90
20856;DHT22;63058;49.424;8.420;2023-02-01T03:08:56;9.20;99.90
20856;DHT22;63058;49.424;8.420;2023-02-01T03:11:23;9.10;99.90
20856;DHT22;63058;49.424;8.420;2023-02-01T03:14:10;9.30;99.90
20856;DHT22;63058;49.424;8.420;2023-02-01T03:16:46;9.20;99.90
20856;DHT22;63058;49.424;8.420;2023-02-01T03:19:33;9.20;99.90
20856;DHT22;63058;49.424;8.420;2023-02-01T03:22:03;9.20;99.90
20856;DHT22;63058;49.424;8.420;2023-02-01T03:25:14;9.20;99.90
20856;DHT22;63058;49.424;8.420;2023-02-01T03:27:51;9.20;99.90
20856;DHT22;63058;49.424;8.420;2023-02-01T03:30:28;9.10;99.90
20856;DHT22;63058;49.424;8.420;2023-02-01T03:32:57;9.20;99.90
20856;DHT22;63058;49.424;8.420;2023-02-01T03:38:06;9.10;99.90
20856;DHT22;63058;49.424;8.420;2023-02-01T03:40:35;9.10;99.90
20856;DHT22;63058;49.424;8.420;2023-02-01T03:43:03;9.20;99.90
20856;DHT22;63058;49.424;8.420;2023-02-01T03:45:43;9.10;99.90
20856;DHT22;63058;49.424;8.420;2023-02-01T03:48:11;9.10;99.90
20856;DHT22;63058;49.424;8.420;2023-02-01T03:50:43;9.10;99.90
20856;DHT22;63058;49.424;8.420;2023-02-01T03:53:17;9.10;99.90
20856;DHT22;63058;49.424;8.420;2023-02-01T03:55:43;9.10;99.90
20856;DHT22;63058;49.424;8.420;2023-02-01T03:58:15;9.20;99.90
20856;DHT22;63058;49.424;8.420;2023-02-01T04:00:54;9.20;99.90
20856;DHT22;63058;49.424;8.420;2023-02-01T04:03:21;9.20;99.90
20856;DHT22;63058;49.424;8.420;2023-02-01T04:05:48;9.20;99.90
20856;DHT22;63058;49.424;8.420;2023-02-01T04:08:14;9.20;99.90
20856;DHT22;63058;49.424;8.420;2023-02-01T04:10:40;9.20;99.90
20856;DHT22;63058;49.424;8.420;2023-02-01T04:13:05;9.20;99.90
20856;DHT22;63058;49.424;8.420;2023-02-01T04:15:32;9.30;99.90
20856;DHT22;63058;49.424;8.420;2023-02-01T04:17:59;9.20;99.90
20856;DHT22;63058;49.424;8.420;2023-02-01T04:20:24;9.20;99.90
20856;DHT22;63058;49.424;8.420;2023-02-01T04:22:50;9.30;99.90
20856;DHT22;63058;49.424;8.420;2023-02-01T04:25:16;9.30;99.90
20856;DHT22;63058;49.424;8.420;2023-02-01T04:27:42;9.30;99.90
20856;DHT22;63058;49.424;8.420;2023-02-01T04:30:08;9.30;99.90
20856;DHT22;63058;49.424;8.420;2023-02-01T04:32:36;9.30;99.90
20856;DHT22;63058;49.424;8.420;2023-02-01T04:35:02;9.30;99.90
20856;DHT22;63058;49.424;8.420;2023-02-01T04:37:32;9.30;99.90
20856;DHT22;63058;49.424;8.420;2023-02-01T04:39:58;9.30;99.90
20856;DHT22;63058;49.424;8.420;2023-02-01T04:42:23;9.30;99.90
20856;DHT22;63058;49.424;8.420;2023-02-01T04:44:49;9.30;99.90
20856;DHT22;63058;49.424;8.420;2023-02-01T04:47:14;9.30;99.90
20856;DHT22;63058;49.424;8.420;2023-02-01T04:49:41;9.30;99.90
20856;DHT22;63058;49.424;8.420;2023-02-01T04:52:07;9.30;99.90
20856;DHT22;63058;49.424;8.420;2023-02-01T04:54:33;9.30;99.90
20856;DHT22;63058;49.424;8.420;2023-02-01T04:56:59;9.30;99.90
20856;DHT22;63058;49.424;8.420;2023-02-01T04:59:24;9.30;99.90
20856;DHT22;63058;49.424;8.420;2023-02-01T05:01:50;9.30;99.90
20856;DHT22;63058;49.424;8.420;2023-02-01T05:04:16;9.40;99.90
20856;DHT22;63058;49.424;8.420;2023-02-01T05:06:44;9.40;99.90
20856;DHT22;63058;49.424;8.420;2023-02-01T05:09:10;9.40;99.90
20856;DHT22;63058;49.424;8.420;2023-02-01T05:11:35;9.30;99.90
20856;DHT22;63058;49.424;8.420;2023-02-01T05:14:19;9.30;99.90
20856;DHT22;63058;49.424;8.420;2023-02-01T05:16:46;9.30;99.90
20856;DHT22;63058;49.424;8.420;2023-02-01T05:19:11;9.30;99.90
20856;DHT22;63058;49.424;8.420;2023-02-01T05:21:37;9.30;99.90
20856;DHT22;63058;49.424;8.420;2023-02-01T05:24:03;9.20;99.90
20856;DHT22;63058;49.424;8.420;2023-02-01T05:26:36;9.20;99.90
20856;DHT22;63058;49.424;8.420;2023-02-01T05:29:02;9.20;99.90
20856;DHT22;63058;49.424;8.420;2023-02-01T05:31:28;9.10;99.90
20856;DHT22;63058;49.424;8.420;2023-02-01T05:33:54;9.10;99.90
20856;DHT22;63058;49.424;8.420;2023-02-01T05:36:20;9.00;99.90
20856;DHT22;63058;49.424;8.420;2023-02-01T05:38:46;9.00;99.90
20856;DHT22;63058;49.424;8.420;2023-02-01T05:41:11;8.90;99.90
20856;DHT22;63058;49.424;8.420;2023-02-01T05:43:37;8.90;99.90
20856;DHT22;63058;49.424;8.420;2023-02-01T05:46:03;8.90;99.90
20856;DHT22;63058;49.424;8.420;2023-02-01T05:48:28;8.80;99.90
20856;DHT22;63058;49.424;8.420;2023-02-01T05:50:54;8.80;99.90
20856;DHT22;63058;49.424;8.420;2023-02-01T05:53:20;8.80;99.90
20856;DHT22;63058;49.424;8.420;2023-02-01T05:55:46;8.70;99.90
20856;DHT22;63058;49.424;8.420;2023-02-01T05:58:11;8.70;99.90
20856;DHT22;63058;49.424;8.420;2023-02-01T06:00:38;8.70;99.90
20856;DHT22;63058;49.424;8.420;2023-02-01T06:03:04;8.70;99.90
20856;DHT22;63058;49.424;8.420;2023-02-01T06:05:29;8.70;99.90
20856;DHT22;63058;49.424;8.420;2023-02-01T06:07:55;8.80;99.90
20856;DHT22;63058;49.424;8.420;2023-02-01T06:10:21;8.80;99.90
20856;DHT22;63058;49.424;8.420;2023-02-01T06:12:46;8.80;99.90
20856;DHT22;63058;49.424;8.420;2023-02-01T06:15:13;8.80;99.90
20856;DHT22;63058;49.424;8.420;2023-02-01T06:17:41;8.80;99.90
20856;DHT22;63058;49.424;8.420;2023-02-01T06:20:09;8.80;99.90
20856;DHT22;63058;49.424;8.420;2023-02-01T06:22:35;8.80;99.90
20856;DHT22;63058;49.424;8.420;2023-02-01T06:25:04;8.80;99.90
20856;DHT22;63058;49.424;8.420;2023-02-01T06:27:31;8.70;99.90
20856;DHT22;63058;49.424;8.420;2023-02-01T06:29:57;8.70;99.90
20856;DHT22;63058;49.424;8.420;2023-02-01T06:32:23;8.80;99.90
20856;DHT22;63058;49.424;8.420;2023-02-01T06:34:49;8.70;99.90
20856;DHT22;63058;49.424;8.420;2023-02-01T06:37:15;8.70;99.90
20856;DHT22;63058;49.424;8.420;2023-02-01T06:39:40;8.70;99.90
20856;DHT22;63058;49.424;8.420;2023-02-01T06:42:06;8.70;99.90
20856;DHT22;63058;49.424;8.420;2023-02-01T06:44:31;8.70;99.90
20856;DHT22;63058;49.424;8.420;2023-02-01T06:46:57;8.90;99.90
20856;DHT22;63058;49.424;8.420;2023-02-01T06:49:23;8.80;99.90
20856;DHT22;63058;49.424;8.420;2023-02-01T06:51:48;8.90;99.90
20856;DHT22;63058;49.424;8.420;2023-02-01T06:54:14;8.90;99.90
20856;DHT22;63058;49.424;8.420;2023-02-01T06:56:40;8.90;99.90
20856;DHT22;63058;49.424;8.420;2023-02-01T06:59:06;8.90;99.90
20856;DHT22;63058;49.424;8.420;2023-02-01T07:01:32;9.00;99.90
20856;DHT22;63058;49.424;8.420;2023-02-01T07:14:19;8.90;99.90
20856;DHT22;63058;49.424;8.420;2023-02-01T07:16:45;9.00;99.90
20856;DHT22;63058;49.424;8.420;2023-02-01T07:19:11;8.90;99.90
20856;DHT22;63058;49.424;8.420;2023-02-01T07:21:36;9.00;99.90
20856;DHT22;63058;49.424;8.420;2023-02-01T07:24:02;8.90;99.90
20856;DHT22;63058;49.424;8.420;2023-02-01T07:26:28;8.90;99.90
20856;DHT22;63058;49.424;8.420;2023-02-01T07:28:54;8.90;99.90
20856;DHT22;63058;49.424;8.420;2023-02-01T07:31:20;8.80;99.90
20856;DHT22;63058;49.424;8.420;2023-02-01T07:33:48;8.90;99.90
20856;DHT22;63058;49.424;8.420;2023-02-01T07:36:17;8.80;99.90
20856;DHT22;63058;49.424;8.420;2023-02-01T07:38:43;8.90;99.90
20856;DHT22;63058;49.424;8.420;2023-02-01T07:41:09;8.80;99.90
20856;DHT22;63058;49.424;8.420;2023-02-01T07:43:36;8.90;99.90
20856;DHT22;63058;49.424;8.420;2023-02-01T07:46:02;8.80;99.90
20856;DHT22;63058;49.424;8.420;2023-02-01T07:48:29;8.90;99.90
20856;DHT22;63058;49.424;8.420;2023-02-01T07:51:11;8.80;99.90
20856;DHT22;63058;49.424;8.420;2023-02-01T07:53:37;8.90;99.90
20856;DHT22;63058;49.424;8.420;2023-02-01T07:56:08;8.90;99.90
20856;DHT22;63058;49.424;8.420;2023-02-01T07:58:35;8.90;99.90
20856;DHT22;63058;49.424;8.420;2023-02-01T08:01:01;8.90;99.90
20856;DHT22;63058;49.424;8.420;2023-02-01T08:03:45;8.80;99.90
20856;DHT22;63058;49.424;8.420;2023-02-01T08:06:11;8.80;99.90
20856;DHT22;63058;49.424;8.420;2023-02-01T08:08:37;8.80;99.90
20856;DHT22;63058;49.424;8.420;2023-02-01T08:11:05;8.90;99.90
20856;DHT22;63058;49.424;8.420;2023-02-01T08:13:32;8.90;99.90
20856;DHT22;63058;49.424;8.420;2023-02-01T08:16:03;8.90;99.90
20856;DHT22;63058;49.424;8.420;2023-02-01T08:18:30;8.90;99.90
20856;DHT22;63058;49.424;8.420;2023-02-01T08:20:56;8.90;99.90
20856;DHT22;63058;49.424;8.420;2023-02-01T08:23:23;9.00;99.90
20856;DHT22;63058;49.424;8.420;2023-02-01T08:26:09;9.10;99.90
20856;DHT22;63058;49.424;8.420;2023-02-01T08:28:41;9.10;99.90
20856;DHT22;63058;49.424;8.420;2023-02-01T08:31:14;9.10;99.90
20856;DHT22;63058;49.424;8.420;2023-02-01T08:33:41;9.20;99.90
20856;DHT22;63058;49.424;8.420;2023-02-01T08:36:11;9.30;99.90
20856;DHT22;63058;49.424;8.420;2023-02-01T08:38:38;9.30;99.90
20856;DHT22;63058;49.424;8.420;2023-02-01T08:41:06;9.30;99.90
20856;DHT22;63058;49.424;8.420;2023-02-01T08:43:36;9.40;99.90
20856;DHT22;63058;49.424;8.420;2023-02-01T08:46:03;9.40;99.90
20856;DHT22;63058;49.424;8.420;2023-02-01T08:48:49;9.50;99.90
20856;DHT22;63058;49.424;8.420;2023-02-01T08:51:34;9.60;99.90
20856;DHT22;63058;49.424;8.420;2023-02-01T08:54:02;9.70;99.90
20856;DHT22;63058;49.424;8.420;2023-02-01T08:56:28;9.70;99.90
20856;DHT22;63058;49.424;8.420;2023-02-01T08:59:00;9.70;99.90
20856;DHT22;63058;49.424;8.420;2023-02-01T09:01:27;9.80;99.90
20856;DHT22;63058;49.424;8.420;2023-02-01T09:03:58;9.80;99.90
20856;DHT22;63058;49.424;8.420;2023-02-01T09:06:24;9.80;99.90
20856;DHT22;63058;49.424;8.420;2023-02-01T09:08:52;9.80;99.90
20856;DHT22;63058;49.424;8.420;2023-02-01T09:11:20;9.80;99.90
20856;DHT22;63058;49.424;8.420;2023-02-01T09:14:00;9.90;99.90
20856;DHT22;63058;49.424;8.420;2023-02-01T09:16:58;9.90;99.90
20856;DHT22;63058;49.424;8.420;2023-02-01T09:19:41;9.90;99.90
20856;DHT22;63058;49.424;8.420;2023-02-01T09:22:17;10.10;99.90
20856;DHT22;63058;49.424;8.420;2023-02-01T09:24:43;10.00;99.90
20856;DHT22;63058;49.424;8.420;2023-02-01T09:27:11;10.10;99.90
20856;DHT22;63058;49.424;8.420;2023-02-01T09:29:42;10.10;99.90
20856;DHT22;63058;49.424;8.420;2023-02-01T09:32:15;10.30;99.90
20856;DHT22;63058;49.424;8.420;2023-02-01T09:34:40;10.30;99.90
20856;DHT22;63058;49.424;8.420;2023-02-01T09:37:09;10.40;99.90
20856;DHT22;63058;49.424;8.420;2023-02-01T09:39:37;10.50;99.90
20856;DHT22;63058;49.424;8.420;2023-02-01T09:42:21;10.40;99.90
20856;DHT22;63058;49.424;8.420;2023-02-01T09:45:55;10.50;99.90
20856;DHT22;63058;49.424;8.420;2023-02-01T09:48:32;10.50;99.30
20856;DHT22;63058;49.424;8.420;2023-02-01T09:51:14;10.50;99.90
20856;DHT22;63058;49.424;8.420;2023-02-01T09:53:43;10.50;99.80
20856;DHT22;63058;49.424;8.420;2023-02-01T09:56:26;10.50;99.80
20856;DHT22;63058;49.424;8.420;2023-02-01T09:59:29;10.40;99.20
20856;DHT22;63058;49.424;8.420;2023-02-01T10:01:57;10.40;98.90
20856;DHT22;63058;49.424;8.420;2023-02-01T10:04:25;10.50;99.40
20856;DHT22;63058;49.424;8.420;2023-02-01T10:07:33;10.50;98.90
20856;DHT22;63058;49.424;8.420;2023-02-01T10:15:59;10.50;98.70
20856;DHT22;63058;49.424;8.420;2023-02-01T10:21:56;10.50;98.00
20856;DHT22;63058;49.424;8.420;2023-02-01T10:24:38;10.50;98.40
20856;DHT22;63058;49.424;8.420;2023-02-01T10:27:20;10.50;98.30
20856;DHT22;63058;49.424;8.420;2023-02-01T10:29:54;10.50;97.70
20856;DHT22;63058;49.424;8.420;2023-02-01T10:32:23;10.50;98.30
20856;DHT22;63058;49.424;8.420;2023-02-01T10:35:02;10.50;97.70
20856;DHT22;63058;49.424;8.420;2023-02-01T10:37:46;10.50;97.90
20856;DHT22;63058;49.424;8.420;2023-02-01T10:40:48;10.60;97.20
20856;DHT22;63058;49.424;8.420;2023-02-01T10:43:23;10.50;98.00
20856;DHT22;63058;49.424;8.420;2023-02-01T10:45:55;10.60;97.50
20856;DHT22;63058;49.424;8.420;2023-02-01T10:48:22;10.50;97.60
20856;DHT22;63058;49.424;8.420;2023-02-01T10:51:05;10.50;97.70
20856;DHT22;63058;49.424;8.420;2023-02-01T10:56:12;10.60;97.30
20856;DHT22;63058;49.424;8.420;2023-02-01T10:58:46;10.60;97.50
20856;DHT22;63058;49.424;8.420;2023-02-01T11:01:27;10.60;97.00
20856;DHT22;63058;49.424;8.420;2023-02-01T11:03:56;10.60;97.10
20856;DHT22;63058;49.424;8.420;2023-02-01T11:06:51;10.60;97.20
20856;DHT22;63058;49.424;8.420;2023-02-01T11:09:22;10.70;97.40
20856;DHT22;63058;49.424;8.420;2023-02-01T11:14:16;10.70;97.10
20856;DHT22;63058;49.424;8.420;2023-02-01T11:16:48;10.80;97.10
20856;DHT22;63058;49.424;8.420;2023-02-01T11:19:17;10.80;95.90
20856;DHT22;63058;49.424;8.420;2023-02-01T11:21:44;10.80;96.30
20856;DHT22;63058;49.424;8.420;2023-02-01T11:24:27;10.80;96.70
20856;DHT22;63058;49.424;8.420;2023-02-01T11:27:00;10.80;96.60
20856;DHT22;63058;49.424;8.420;2023-02-01T11:29:38;10.90;96.60
20856;DHT22;63058;49.424;8.420;2023-02-01T11:32:08;10.80;96.40
20856;DHT22;63058;49.424;8.420;2023-02-01T11:34:42;10.80;96.20
20856;DHT22;63058;49.424;8.420;2023-02-01T11:37:30;10.80;96.10
20856;DHT22;63058;49.424;8.420;2023-02-01T11:39:58;10.80;96.20
20856;DHT22;63058;49.424;8.420;2023-02-01T11:42:25;10.70;96.10
20856;DHT22;63058;49.424;8.420;2023-02-01T11:47:41;10.70;96.10
20856;DHT22;63058;49.424;8.420;2023-02-01T11:50:26;10.70;96.20
20856;DHT22;63058;49.424;8.420;2023-02-01T11:53:06;10.60;95.90
20856;DHT22;63058;49.424;8.420;2023-02-01T11:55:59;10.60;95.20
20856;DHT22;63058;49.424;8.420;2023-02-01T12:04:34;10.60;95.70
20856;DHT22;63058;49.424;8.420;2023-02-01T12:07:20;10.70;96.10
20856;DHT22;63058;49.424;8.420;2023-02-01T12:10:16;10.70;94.90
20856;DHT22;63058;49.424;8.420;2023-02-01T12:13:12;10.70;95.20
20856;DHT22;63058;49.424;8.420;2023-02-01T12:30:10;10.90;94.50
20856;DHT22;63058;49.424;8.420;2023-02-01T12:35:47;10.90;94.10
20856;DHT22;63058;49.424;8.420;2023-02-01T12:38:40;10.90;94.60
20856;DHT22;63058;49.424;8.420;2023-02-01T12:52:49;10.90;94.50
20856;DHT22;63058;49.424;8.420;2023-02-01T12:55:37;10.90;94.50
20856;DHT22;63058;49.424;8.420;2023-02-01T12:58:15;10.80;94.00
20856;DHT22;63058;49.424;8.420;2023-02-01T13:00:43;10.80;93.70
20856;DHT22;63058;49.424;8.420;2023-02-01T13:03:27;10.80;94.20
20856;DHT22;63058;49.424;8.420;2023-02-01T13:09:18;10.70;94.20
20856;DHT22;63058;49.424;8.420;2023-02-01T13:11:46;10.70;92.80
20856;DHT22;63058;49.424;8.420;2023-02-01T13:17:16;10.60;94.00
20856;DHT22;63058;49.424;8.420;2023-02-01T13:19:49;10.70;92.70
20856;DHT22;63058;49.424;8.420;2023-02-01T13:22:24;10.60;93.60
20856;DHT22;63058;49.424;8.420;2023-02-01T13:25:03;10.60;93.30
20856;DHT22;63058;49.424;8.420;2023-02-01T13:27:32;10.60;93.60
20856;DHT22;63058;49.424;8.420;2023-02-01T13:30:23;10.60;93.70
20856;DHT22;63058;49.424;8.420;2023-02-01T13:33:23;10.60;92.80
20856;DHT22;63058;49.424;8.420;2023-02-01T13:41:57;10.60;93.20
20856;DHT22;63058;49.424;8.420;2023-02-01T13:44:38;10.70;93.70
20856;DHT22;63058;49.424;8.420;2023-02-01T13:47:27;10.60;93.70
20856;DHT22;63058;49.424;8.420;2023-02-01T13:49:57;10.60;93.20
20856;DHT22;63058;49.424;8.420;2023-02-01T13:52:37;10.60;93.30
20856;DHT22;63058;49.424;8.420;2023-02-01T13:57:58;10.60;93.30
20856;DHT22;63058;49.424;8.420;2023-02-01T14:15:38;10.50;92.50
20856;DHT22;63058;49.424;8.420;2023-02-01T14:21:22;10.50;92.50
20856;DHT22;63058;49.424;8.420;2023-02-01T14:26:24;10.50;92.50
20856;DHT22;63058;49.424;8.420;2023-02-01T14:36:49;10.50;92.20
20856;DHT22;63058;49.424;8.420;2023-02-01T14:40:05;10.60;91.90
20856;DHT22;63058;49.424;8.420;2023-02-01T14:44:52;10.60;92.40
20856;DHT22;63058;49.424;8.420;2023-02-01T14:53:06;10.70;92.00
20856;DHT22;63058;49.424;8.420;2023-02-01T14:55:53;10.70;92.50
20856;DHT22;63058;49.424;8.420;2023-02-01T15:06:03;10.70;92.70
20856;DHT22;63058;49.424;8.420;2023-02-01T15:08:37;10.70;92.40
20856;DHT22;63058;49.424;8.420;2023-02-01T15:11:13;10.60;92.50
20856;DHT22;63058;49.424;8.420;2023-02-01T15:13:40;10.70;92.00
20856;DHT22;63058;49.424;8.420;2023-02-01T15:16:13;10.70;91.90
20856;DHT22;63058;49.424;8.420;2023-02-01T15:18:40;10.70;91.90
20856;DHT22;63058;49.424;8.420;2023-02-01T15:21:22;10.70;92.20
20856;DHT22;63058;49.424;8.420;2023-02-01T15:23:49;10.70;91.90
20856;DHT22;63058;49.424;8.420;2023-02-01T15:26:27;10.70;91.70
20856;DHT22;63058;49.424;8.420;2023-02-01T15:28:57;10.80;91.40
20856;DHT22;63058;49.424;8.420;2023-02-01T15:31:42;10.80;91.90
20856;DHT22;63058;49.424;8.420;2023-02-01T15:34:08;10.80;92.10
20856;DHT22;63058;49.424;8.420;2023-02-01T15:36:34;10.80;92.30
20856;DHT22;63058;49.424;8.420;2023-02-01T15:39:20;10.80;92.00
20856;DHT22;63058;49.424;8.420;2023-02-01T15:41:55;10.90;91.90
20856;DHT22;63058;49.424;8.420;2023-02-01T15:44:37;10.90;92.00
20856;DHT22;63058;49.424;8.420;2023-02-01T15:47:20;10.90;92.00
20856;DHT22;63058;49.424;8.420;2023-02-01T15:49:52;10.90;91.40
20856;DHT22;63058;49.424;8.420;2023-02-01T15:52:39;10.80;91.60
20856;DHT22;63058;49.424;8.420;2023-02-01T15:55:36;10.80;91.50
20856;DHT22;63058;49.424;8.420;2023-02-01T15:58:18;10.80;91.10
20856;DHT22;63058;49.424;8.420;2023-02-01T16:00:53;10.70;90.00
20856;DHT22;63058;49.424;8.420;2023-02-01T16:08:54;10.60;91.00
20856;DHT22;63058;49.424;8.420;2023-02-01T16:11:26;10.60;91.60
20856;DHT22;63058;49.424;8.420;2023-02-01T16:13:53;10.60;91.30
20856;DHT22;63058;49.424;8.420;2023-02-01T16:16:19;10.60;91.70
20856;DHT22;63058;49.424;8.420;2023-02-01T16:18:47;10.50;91.80
20856;DHT22;63058;49.424;8.420;2023-02-01T16:21:13;10.50;91.80
20856;DHT22;63058;49.424;8.420;2023-02-01T16:23:38;10.40;91.80
20856;DHT22;63058;49.424;8.420;2023-02-01T16:26:04;10.40;91.80
20856;DHT22;63058;49.424;8.420;2023-02-01T16:28:31;10.40;91.20
20856;DHT22;63058;49.424;8.420;2023-02-01T16:30:56;10.40;91.90
20856;DHT22;63058;49.424;8.420;2023-02-01T16:33:23;10.40;92.10
20856;DHT22;63058;49.424;8.420;2023-02-01T16:35:50;10.40;91.90
20856;DHT22;63058;49.424;8.420;2023-02-01T16:38:19;10.30;92.00
20856;DHT22;63058;49.424;8.420;2023-02-01T16:40:50;10.30;91.60
20856;DHT22;63058;49.424;8.420;2023-02-01T16:43:22;10.30;91.80
20856;DHT22;63058;49.424;8.420;2023-02-01T16:45:49;10.30;92.20
20856;DHT22;63058;49.424;8.420;2023-02-01T16:48:24;10.30;91.60
20856;DHT22;63058;49.424;8.420;2023-02-01T16:50:59;10.30;91.60
20856;DHT22;63058;49.424;8.420;2023-02-01T16:53:28;10.30;91.20
20856;DHT22;63058;49.424;8.420;2023-02-01T16:55:54;10.30;91.50
20856;DHT22;63058;49.424;8.420;2023-02-01T16:58:27;10.30;91.80
20856;DHT22;63058;49.424;8.420;2023-02-01T17:00:53;10.30;91.60
20856;DHT22;63058;49.424;8.420;2023-02-01T17:03:20;10.30;91.90
20856;DHT22;63058;49.424;8.420;2023-02-01T17:05:54;10.20;91.70
20856;DHT22;63058;49.424;8.420;2023-02-01T17:08:48;10.30;91.60
20856;DHT22;63058;49.424;8.420;2023-02-01T17:11:17;10.30;92.00
20856;DHT22;63058;49.424;8.420;2023-02-01T17:13:43;10.30;92.10
20856;DHT22;63058;49.424;8.420;2023-02-01T17:16:26;10.30;92.10
20856;DHT22;63058;49.424;8.420;2023-02-01T17:19:03;10.30;92.10
20856;DHT22;63058;49.424;8.420;2023-02-01T17:21:42;10.30;91.90
20856;DHT22;63058;49.424;8.420;2023-02-01T17:24:12;10.30;92.20
20856;DHT22;63058;49.424;8.420;2023-02-01T17:26:40;10.30;92.10
20856;DHT22;63058;49.424;8.420;2023-02-01T17:29:08;10.30;91.90
20856;DHT22;63058;49.424;8.420;2023-02-01T17:31:43;10.20;91.90
20856;DHT22;63058;49.424;8.420;2023-02-01T17:34:11;10.20;92.00
20856;DHT22;63058;49.424;8.420;2023-02-01T17:36:36;10.20;92.00
20856;DHT22;63058;49.424;8.420;2023-02-01T17:39:06;10.20;92.00
20856;DHT22;63058;49.424;8.420;2023-02-01T17:41:32;10.20;91.60
20856;DHT22;63058;49.424;8.420;2023-02-01T17:43:58;10.20;91.80
20856;DHT22;63058;49.424;8.420;2023-02-01T17:46:24;10.20;91.40
20856;DHT22;63058;49.424;8.420;2023-02-01T17:48:53;10.20;92.30
20856;DHT22;63058;49.424;8.420;2023-02-01T17:51:27;10.20;91.80
20856;DHT22;63058;49.424;8.420;2023-02-01T17:53:54;10.20;91.30
20856;DHT22;63058;49.424;8.420;2023-02-01T17:56:22;10.20;91.70
20856;DHT22;63058;49.424;8.420;2023-02-01T17:58:48;10.20;91.70
20856;DHT22;63058;49.424;8.420;2023-02-01T18:01:20;10.20;91.50
20856;DHT22;63058;49.424;8.420;2023-02-01T18:03:46;10.20;91.20
20856;DHT22;63058;49.424;8.420;2023-02-01T18:06:14;10.20;91.70
20856;DHT22;63058;49.424;8.420;2023-02-01T18:08:40;10.20;91.40
20856;DHT22;63058;49.424;8.420;2023-02-01T18:11:12;10.10;91.20
20856;DHT22;63058;49.424;8.420;2023-02-01T18:13:38;10.10;91.00
20856;DHT22;63058;49.424;8.420;2023-02-01T18:16:04;10.10;91.40
20856;DHT22;63058;49.424;8.420;2023-02-01T18:18:30;10.10;91.30
20856;DHT22;63058;49.424;8.420;2023-02-01T18:20:58;10.00;91.30
20856;DHT22;63058;49.424;8.420;2023-02-01T18:23:24;10.00;91.50
20856;DHT22;63058;49.424;8.420;2023-02-01T18:25:51;10.00;91.60
20856;DHT22;63058;49.424;8.420;2023-02-01T18:28:17;10.00;91.50
20856;DHT22;63058;49.424;8.420;2023-02-01T18:30:45;10.00;91.60
20856;DHT22;63058;49.424;8.420;2023-02-01T18:33:16;10.00;92.00
20856;DHT22;63058;49.424;8.420;2023-02-01T18:35:42;10.00;92.20
20856;DHT22;63058;49.424;8.420;2023-02-01T18:38:08;10.00;91.80
20856;DHT22;63058;49.424;8.420;2023-02-01T18:40:53;10.00;91.90
20856;DHT22;63058;49.424;8.420;2023-02-01T18:43:25;10.00;91.60